Time;durP1;ratioP1;P1;durP2;ratioP2;P2;SDS_P1;SDS_P2;PMS_P1;PMS_P2;Temp;Humidity;BMP_temperature;BMP_pressure;BME280_temperature;BME280_humidity;BME280_pressure;Samples;Min_cycle;Max_cycle;Signal;HPM_P1;HPM_P2
2023/10/14 00:00:26;;;;;;;28.60;18.70;;;;;;;9.45;100.00;101325.96;107233;1247;63353;-80
2023/10/14 00:03:33;;;;;;;27.40;19.60;;;;;;;9.41;100.00;101325.34;107222;1244;64688;-75
2023/10/14 00:06:07;;;;;;;28.70;18.90;;;;;;;9.36;100.00;101327.85;107227;1244;60572;-79
2023/10/14 00:11:35;;;;;;;27.00;18.80;;;;;;;9.30;100.00;101321.96;107165;1246;61222;-73
2023/10/14 00:14:14;;;;;;;28.80;19.30;;;;;;;9.26;100.00;101316.81;107074;1247;59760;-73
2023/10/14 00:16:51;;;;;;;26.40;19.50;;;;;;;9.23;100.00;101308.98;107092;1248;62447;-72
2023/10/14 00:19:22;;;;;;;28.40;19.50;;;;;;;9.19;100.00;101302.25;107111;1245;62707;-72
2023/10/14 00:21:52;;;;;;;29.50;19.60;;;;;;;9.17;100.00;101300.95;107097;1246;60527;-75
2023/10/14 00:24:26;;;;;;;29.10;19.10;;;;;;;9.15;100.00;101297.77;107053;1256;62994;-73
2023/10/14 00:26:57;;;;;;;29.30;20.80;;;;;;;9.16;100.00;101297.58;107033;1245;71806;-74
2023/10/14 00:29:29;;;;;;;31.30;19.80;;;;;;;9.14;100.00;101296.30;107121;1256;60223;-72
2023/10/14 00:31:58;;;;;;;33.10;21.10;;;;;;;9.13;100.00;101294.05;107232;1249;63012;-75
2023/10/14 00:34:29;;;;;;;36.80;21.70;;;;;;;9.12;100.00;101289.06;107291;1246;61029;-77
2023/10/14 00:36:58;;;;;;;36.30;23.50;;;;;;;9.15;100.00;101288.77;107127;1248;60393;-79
2023/10/14 00:39:28;;;;;;;33.70;22.90;;;;;;;9.15;100.00;101287.20;107125;1244;73004;-77
2023/10/14 00:41:58;;;;;;;31.70;21.20;;;;;;;9.16;100.00;101287.98;107182;1246;61251;-74
2023/10/14 00:44:28;;;;;;;33.30;21.60;;;;;;;9.13;100.00;101285.39;107266;1246;69426;-73
2023/10/14 00:46:57;;;;;;;33.00;21.90;;;;;;;9.12;100.00;101287.86;107134;1251;72819;-73
2023/10/14 00:49:34;;;;;;;29.80;20.00;;;;;;;9.11;100.00;101283.45;107245;1246;57468;-74
2023/10/14 00:52:07;;;;;;;29.90;20.70;;;;;;;9.08;100.00;101278.55;107180;1246;60235;-74
2023/10/14 00:59:55;;;;;;;29.40;20.60;;;;;;;9.06;100.00;101280.42;107240;1244;70240;-73
2023/10/14 01:02:31;;;;;;;33.60;20.10;;;;;;;9.03;100.00;101280.91;107052;1255;73010;-73
2023/10/14 01:05:08;;;;;;;28.10;19.00;;;;;;;8.99;100.00;101275.91;107066;1248;63309;-73
2023/10/14 01:07:38;;;;;;;27.20;18.60;;;;;;;8.97;100.00;101279.52;108179;1246;62789;-72
2023/10/14 01:10:11;;;;;;;29.90;19.20;;;;;;;8.95;100.00;101275.45;107927;1246;63253;-74
2023/10/14 01:12:45;;;;;;;31.00;20.30;;;;;;;8.96;100.00;101271.05;107772;1248;61649;-74
2023/10/14 01:15:29;;;;;;;28.40;19.90;;;;;;;8.95;100.00;101263.31;107223;1248;71431;-74
2023/10/14 01:17:58;;;;;;;;;;;;;;;8.92;100.00;101260.89;107179;1245;73820;-74
2023/10/14 01:20:37;;;;;;;27.60;18.90;;;;;;;8.90;100.00;101259.26;107152;1245;60332;-74
2023/10/14 01:23:14;;;;;;;29.00;19.30;;;;;;;8.86;100.00;101256.02;107217;1245;60119;-74
2023/10/14 01:25:47;;;;;;;27.50;17.50;;;;;;;8.82;100.00;101258.86;107180;1248;72328;-75
2023/10/14 01:28:29;;;;;;;29.30;18.20;;;;;;;8.78;100.00;101255.40;107198;1246;63316;-79
2023/10/14 01:31:34;;;;;;;27.50;18.20;;;;;;;8.74;100.00;101256.48;107095;1244;70246;-78
2023/10/14 01:34:07;;;;;;;28.00;18.20;;;;;;;8.72;100.00;101251.03;107235;1246;63733;-79
2023/10/14 01:36:40;;;;;;;31.00;18.60;;;;;;;8.70;100.00;101251.51;107244;1247;62151;-79
2023/10/14 01:39:21;;;;;;;27.90;19.40;;;;;;;8.69;100.00;101243.74;107203;1244;58833;-80
2023/10/14 01:41:53;;;;;;;26.10;18.10;;;;;;;8.68;100.00;101242.10;107258;1248;73240;-80
2023/10/14 01:44:22;;;;;;;28.10;17.70;;;;;;;8.68;100.00;101239.67;107176;1244;61168;-76
2023/10/14 01:46:54;;;;;;;25.30;17.20;;;;;;;8.66;100.00;101230.88;107253;1257;69675;-79
2023/10/14 01:49:27;;;;;;;29.30;18.00;;;;;;;8.64;100.00;101228.09;107143;1257;74285;-76
2023/10/14 01:51:59;;;;;;;34.40;17.50;;;;;;;8.61;100.00;101223.55;107183;1246;59058;-75
2023/10/14 01:54:28;;;;;;;32.30;17.90;;;;;;;8.58;100.00;101222.13;107064;1248;62238;-75
2023/10/14 01:56:59;;;;;;;29.20;18.30;;;;;;;8.58;100.00;101218.52;107190;1245;73431;-77
2023/10/14 01:59:29;;;;;;;29.00;17.70;;;;;;;8.58;100.00;101214.67;107190;1249;61013;-81
2023/10/14 02:01:59;;;;;;;29.40;16.60;;;;;;;8.59;100.00;101209.26;107262;1249;69743;-74
2023/10/14 02:04:28;;;;;;;27.20;17.40;;;;;;;8.59;100.00;101210.78;107203;1256;74513;-73
2023/10/14 02:07:18;;;;;;;26.70;16.40;;;;;;;8.59;100.00;101210.66;107202;1246;59060;-77
2023/10/14 02:09:48;;;;;;;27.50;16.20;;;;;;;8.57;100.00;101207.45;107214;1247;58954;-74
2023/10/14 02:12:18;;;;;;;28.60;15.40;;;;;;;8.55;100.00;101205.83;107116;1248;64531;-78
2023/10/14 02:14:57;;;;;;;24.20;15.30;;;;;;;8.51;100.00;101205.87;107262;1249;72383;-76
2023/10/14 02:17:26;;;;;;;24.00;15.00;;;;;;;8.49;100.00;101204.90;107302;1248;61246;-77
2023/10/14 02:20:05;;;;;;;23.80;16.00;;;;;;;8.49;100.00;101205.42;107249;1246;64207;-77
2023/10/14 02:22:38;;;;;;;23.00;15.10;;;;;;;8.49;100.00;101206.15;107259;1253;63137;-75
2023/10/14 02:25:07;;;;;;;26.60;15.10;;;;;;;8.48;100.00;101208.45;107243;1245;58315;-76
2023/10/14 02:27:41;;;;;;;22.70;15.90;;;;;;;8.48;100.00;101206.56;107170;1249;63895;-77
2023/10/14 02:30:11;;;;;;;23.10;15.40;;;;;;;8.48;100.00;101208.66;107156;1248;60689;-78
2023/10/14 02:32:40;;;;;;;23.30;15.20;;;;;;;8.48;100.00;101208.81;107074;1248;60684;-83
2023/10/14 02:35:12;;;;;;;24.40;16.90;;;;;;;8.47;100.00;101206.77;107065;1257;62856;-81
2023/10/14 02:37:41;;;;;;;24.60;17.30;;;;;;;8.48;100.00;101203.93;107064;1246;62113;-81
2023/10/14 02:40:23;;;;;;;24.00;15.30;;;;;;;8.49;100.00;101203.91;107002;1244;59100;-79
2023/10/14 02:42:57;;;;;;;21.70;14.40;;;;;;;8.48;100.00;101203.04;107116;1245;74070;-79
2023/10/14 02:45:33;;;;;;;20.50;14.60;;;;;;;8.45;100.00;101203.73;107171;1246;72570;-78
2023/10/14 02:48:02;;;;;;;25.20;16.20;;;;;;;8.42;100.00;101202.73;107192;1248;67463;-79
2023/10/14 02:50:32;;;;;;;20.10;14.30;;;;;;;8.39;100.00;101201.16;107165;1248;73562;-76
2023/10/14 02:53:06;;;;;;;23.80;15.00;;;;;;;8.37;100.00;101202.14;107185;1254;62046;-79
2023/10/14 02:55:50;;;;;;;22.20;14.00;;;;;;;8.36;100.00;101201.16;107230;1245;61657;-79
2023/10/14 02:58:21;;;;;;;24.90;16.00;;;;;;;8.34;100.00;101200.03;107099;1248;74317;-80
2023/10/14 03:00:49;;;;;;;24.40;16.80;;;;;;;8.34;100.00;101200.35;107097;1244;72931;-79
2023/10/14 03:03:21;;;;;;;25.10;16.70;;;;;;;8.35;100.00;101200.33;107142;1249;69402;-76
2023/10/14 03:05:53;;;;;;;20.50;14.10;;;;;;;8.34;100.00;101197.94;107139;1253;63570;-74
2023/10/14 03:08:22;;;;;;;23.20;16.50;;;;;;;8.33;100.00;101201.77;107165;1255;63354;-76
2023/10/14 03:10:59;;;;;;;25.80;18.20;;;;;;;8.37;100.00;101200.05;107127;1251;58411;-76
2023/10/14 03:13:29;;;;;;;28.50;17.20;;;;;;;8.41;100.00;101202.10;107135;1257;72896;-75
2023/10/14 03:16:00;;;;;;;27.70;16.40;;;;;;;8.45;100.00;101201.02;107101;1248;61118;-77
2023/10/14 03:18:38;;;;;;;26.10;17.90;;;;;;;8.47;100.00;101193.23;107205;1250;69586;-76
2023/10/14 03:21:23;;;;;;;23.30;16.00;;;;;;;8.50;100.00;101192.39;107164;1246;63683;-74
2023/10/14 03:23:56;;;;;;;21.50;16.00;;;;;;;8.50;100.00;101187.52;107158;1256;61433;-73
2023/10/14 03:26:32;;;;;;;;;;;;;;;8.47;100.00;101180.38;107233;1254;59369;-76
2023/10/14 03:29:12;;;;;;;26.10;16.50;;;;;;;8.44;100.00;101178.80;107151;1256;63344;-76
2023/10/14 03:31:44;;;;;;;27.50;16.10;;;;;;;8.40;100.00;101179.04;107187;1246;61425;-76
2023/10/14 03:34:14;;;;;;;24.60;16.10;;;;;;;8.35;100.00;101180.01;107237;1245;61834;-76
2023/10/14 03:36:43;;;;;;;22.30;16.60;;;;;;;8.33;100.00;101181.31;107147;1248;62819;-76
2023/10/14 03:39:37;;;;;;;27.80;18.90;;;;;;;8.33;100.00;101183.06;108127;1253;59078;-77
2023/10/14 03:42:15;;;;;;;27.10;17.10;;;;;;;8.37;100.00;101177.83;107222;1254;60299;-76
2023/10/14 03:44:47;;;;;;;33.90;19.50;;;;;;;8.33;100.00;101178.05;107032;1249;72816;-76
2023/10/14 03:47:16;;;;;;;27.70;17.30;;;;;;;8.35;100.00;101179.70;107190;1248;61600;-77
2023/10/14 03:49:55;;;;;;;24.70;17.80;;;;;;;8.36;100.00;101180.14;106999;1256;68613;-77
2023/10/14 03:52:26;;;;;;;30.20;17.90;;;;;;;8.33;100.00;101175.80;107013;1249;62820;-76
2023/10/14 03:54:55;;;;;;;25.20;17.40;;;;;;;8.30;100.00;101168.29;106988;1248;59008;-76
2023/10/14 03:57:35;;;;;;;28.20;17.30;;;;;;;8.31;100.00;101168.41;107048;1256;57504;-78
2023/10/14 04:00:12;;;;;;;25.40;17.10;;;;;;;8.30;100.00;101166.77;107137;1248;73413;-76
2023/10/14 04:02:43;;;;;;;24.80;17.80;;;;;;;8.29;100.00;101162.96;107135;1257;72518;-75
2023/10/14 04:05:12;;;;;;;26.80;18.70;;;;;;;8.29;100.00;101161.11;107128;1248;60500;-77
2023/10/14 04:07:41;;;;;;;31.00;19.50;;;;;;;8.27;100.00;101159.45;107168;1257;64390;-75
2023/10/14 04:10:11;;;;;;;31.00;22.30;;;;;;;8.26;100.00;101158.66;107074;1248;62560;-76
2023/10/14 04:12:53;;;;;;;27.80;18.00;;;;;;;8.29;100.00;101156.92;107080;1249;60882;-74
2023/10/14 04:17:58;;;;;;;28.50;18.30;;;;;;;8.25;100.00;101160.42;107139;1246;71899;-75
2023/10/14 04:20:29;;;;;;;29.10;17.90;;;;;;;8.23;100.00;101156.54;107052;1252;60325;-77
2023/10/14 04:23:05;;;;;;;30.70;18.40;;;;;;;8.23;100.00;101157.75;107219;1248;73720;-76
2023/10/14 04:25:42;;;;;;;24.00;17.20;;;;;;;8.24;100.00;101157.34;107189;1246;61273;-83
2023/10/14 04:30:42;;;;;;;26.10;16.40;;;;;;;8.20;100.00;101153.20;107288;1244;72592;-81
2023/10/14 04:38:42;;;;;;;31.80;19.80;;;;;;;8.20;100.00;101149.58;107092;1248;62670;-72
2023/10/14 04:41:14;;;;;;;36.00;20.90;;;;;;;8.20;100.00;101153.41;107122;1249;59044;-77
2023/10/14 04:44:00;;;;;;;35.60;24.80;;;;;;;8.21;100.00;101154.92;107225;1249;59162;-76
2023/10/14 04:46:32;;;;;;;34.50;22.10;;;;;;;8.25;100.00;101153.47;107044;1250;73343;-76
2023/10/14 04:49:07;;;;;;;33.40;20.90;;;;;;;8.27;100.00;101155.96;107154;1256;61883;-75
2023/10/14 04:51:44;;;;;;;36.30;24.30;;;;;;;8.28;100.00;101151.59;107171;1256;59441;-75
2023/10/14 04:54:20;;;;;;;40.30;25.50;;;;;;;8.31;100.00;101151.25;107167;1256;73203;-78
2023/10/14 04:56:49;;;;;;;28.00;21.50;;;;;;;8.35;100.00;101152.27;107155;1248;62539;-76
2023/10/14 04:59:24;;;;;;;33.90;22.10;;;;;;;8.38;100.00;101149.11;107090;1249;60953;-78
2023/10/14 05:01:55;;;;;;;34.10;20.90;;;;;;;8.43;100.00;101146.96;107193;1252;62661;-77
2023/10/14 05:04:30;;;;;;;37.10;22.70;;;;;;;8.49;100.00;101143.33;107338;1246;71379;-78
2023/10/14 05:07:05;;;;;;;39.20;25.50;;;;;;;8.56;100.00;101138.38;107411;1252;70251;-78
2023/10/14 05:09:39;;;;;;;34.40;22.10;;;;;;;8.64;100.00;101136.55;107310;1256;62713;-77
2023/10/14 05:12:10;;;;;;;35.50;22.10;;;;;;;8.71;100.00;101137.86;107273;1249;58974;-81
2023/10/14 05:14:42;;;;;;;31.50;21.40;;;;;;;8.78;100.00;101136.25;107379;1245;59093;-79
2023/10/14 05:19:41;;;;;;;33.20;21.70;;;;;;;8.95;100.00;101137.18;107289;1245;71797;-78
2023/10/14 05:22:24;;;;;;;33.00;20.70;;;;;;;9.05;100.00;101139.02;107193;1251;60897;-79
2023/10/14 05:24:56;;;;;;;33.10;21.70;;;;;;;9.16;100.00;101141.67;107019;1257;62260;-82
2023/10/14 05:27:35;;;;;;;38.90;24.40;;;;;;;9.29;100.00;101142.66;106988;1248;59045;-76
2023/10/14 05:30:06;;;;;;;34.30;21.90;;;;;;;9.44;100.00;101138.42;107075;1246;61036;-71
2023/10/14 05:32:36;;;;;;;33.50;21.60;;;;;;;9.57;100.00;101140.42;107009;1244;62388;-71
2023/10/14 05:35:09;;;;;;;33.00;20.80;;;;;;;9.72;100.00;101139.49;106992;1253;70557;-71
2023/10/14 05:37:41;;;;;;;34.90;21.00;;;;;;;9.84;100.00;101141.38;107167;1253;61712;-71
2023/10/14 05:40:15;;;;;;;31.90;18.60;;;;;;;9.97;100.00;101140.48;107068;1257;63083;-70
2023/10/14 05:42:45;;;;;;;29.60;20.10;;;;;;;10.13;100.00;101142.33;107070;1248;59113;-73
2023/10/14 05:45:15;;;;;;;31.00;20.30;;;;;;;10.29;100.00;101140.27;107077;1245;60992;-72
2023/10/14 05:47:46;;;;;;;30.80;22.10;;;;;;;10.45;100.00;101144.27;107036;1254;74706;-73
2023/10/14 05:50:15;;;;;;;34.20;20.80;;;;;;;10.60;100.00;101141.77;106980;1255;61070;-69
2023/10/14 05:52:46;;;;;;;38.20;22.70;;;;;;;10.76;100.00;101141.05;106967;1256;68396;-68
2023/10/14 05:55:25;;;;;;;33.90;22.80;;;;;;;10.92;100.00;101141.02;106971;1256;74277;-73
2023/10/14 05:57:58;;;;;;;34.60;24.70;;;;;;;11.10;100.00;101144.36;106978;1253;59187;-67
2023/10/14 06:00:29;;;;;;;36.80;25.30;;;;;;;11.29;100.00;101140.60;106909;1246;60159;-70
2023/10/14 06:02:58;;;;;;;42.60;23.20;;;;;;;11.45;100.00;101135.65;106890;1255;73954;-69
2023/10/14 06:05:31;;;;;;;31.50;20.90;;;;;;;11.62;100.00;101134.62;106897;1247;72559;-68
2023/10/14 06:08:05;;;;;;;37.10;20.40;;;;;;;11.81;100.00;101137.88;106927;1244;69988;-71
2023/10/14 06:10:36;;;;;;;32.70;20.00;;;;;;;12.01;100.00;101133.29;106401;1253;756051;-72
2023/10/14 06:13:05;;;;;;;31.30;19.90;;;;;;;12.20;100.00;101134.92;106988;1246;58933;-69
2023/10/14 06:15:44;;;;;;;33.90;20.20;;;;;;;12.43;100.00;101133.58;107095;1245;60554;-68
2023/10/14 06:18:14;;;;;;;28.20;20.00;;;;;;;12.62;100.00;101125.71;106953;1244;73717;-68
2023/10/14 06:20:45;;;;;;;22.90;17.00;;;;;;;12.77;100.00;101123.54;106951;1245;71952;-68
2023/10/14 06:23:14;;;;;;;34.10;14.30;;;;;;;12.93;100.00;101117.78;106979;1256;59635;-68
2023/10/14 06:25:43;;;;;;;26.20;15.60;;;;;;;13.21;100.00;101113.23;106919;1256;62816;-68
2023/10/14 06:28:12;;;;;;;22.30;13.30;;;;;;;13.39;100.00;101110.08;107041;1254;62539;-71
2023/10/14 06:30:43;;;;;;;22.30;13.00;;;;;;;13.56;100.00;101110.17;107120;1245;61055;-69
2023/10/14 06:33:12;;;;;;;21.60;14.10;;;;;;;13.77;100.00;101108.13;107046;1250;74115;-71
2023/10/14 06:35:46;;;;;;;21.80;12.10;;;;;;;13.88;100.00;101103.78;107011;1246;61826;-68
2023/10/14 06:38:22;;;;;;;23.50;12.40;;;;;;;14.04;100.00;101101.27;107010;1246;71388;-68
2023/10/14 06:40:54;;;;;;;41.70;25.80;;;;;;;14.17;100.00;101098.98;106968;1248;62892;-69
2023/10/14 06:43:25;;;;;;;24.30;12.70;;;;;;;14.30;100.00;101099.33;106936;1245;59103;-69
2023/10/14 06:45:56;;;;;;;17.60;11.10;;;;;;;14.43;100.00;101098.10;106946;1244;61004;-68
2023/10/14 06:48:27;;;;;;;20.10;12.30;;;;;;;14.54;100.00;101096.66;107007;1255;64553;-70
2023/10/14 06:50:56;;;;;;;22.30;12.70;;;;;;;14.67;100.00;101099.30;107121;1244;63284;-68
2023/10/14 06:53:28;;;;;;;19.30;12.60;;;;;;;14.76;100.00;101099.92;109498;1244;69967;-69
2023/10/14 06:56:01;;;;;;;21.30;10.80;;;;;;;14.90;100.00;101098.38;108296;1245;64075;-69
2023/10/14 06:58:32;;;;;;;20.90;11.20;;;;;;;15.02;100.00;101097.88;107143;1249;58966;-75
2023/10/14 07:01:03;;;;;;;22.30;11.10;;;;;;;15.13;100.00;101091.16;107194;1245;58923;-69
2023/10/14 07:03:33;;;;;;;23.30;12.40;;;;;;;15.23;100.00;101086.95;107090;1249;62132;-68
2023/10/14 07:06:04;;;;;;;17.80;12.70;;;;;;;15.36;100.00;101089.90;107171;1245;71368;-69
2023/10/14 07:08:36;;;;;;;20.10;11.80;;;;;;;15.47;100.00;101086.14;107253;1256;59551;-69
2023/10/14 07:11:06;;;;;;;20.60;12.20;;;;;;;15.59;100.00;101081.20;107191;1246;74105;-69
2023/10/14 07:13:38;;;;;;;20.90;12.80;;;;;;;15.71;100.00;101080.71;107134;1244;57320;-69
2023/10/14 07:16:08;;;;;;;20.30;12.70;;;;;;;15.82;100.00;101076.80;107130;1245;58971;-70
2023/10/14 07:18:38;;;;;;;18.70;10.60;;;;;;;15.95;100.00;101076.27;107175;1246;63263;-69
2023/10/14 07:21:12;;;;;;;19.40;11.80;;;;;;;16.07;100.00;101073.67;107180;1245;71493;-68
2023/10/14 07:23:42;;;;;;;18.30;10.90;;;;;;;16.14;100.00;101072.67;107053;1249;66837;-70
2023/10/14 07:26:13;;;;;;;19.90;10.90;;;;;;;16.24;100.00;101066.19;107169;1246;64772;-70
2023/10/14 07:28:43;;;;;;;19.20;10.70;;;;;;;16.29;100.00;101058.14;107182;1252;59001;-70
2023/10/14 07:31:13;;;;;;;22.70;10.60;;;;;;;16.43;100.00;101057.88;107152;1256;60215;-69
2023/10/14 07:33:43;;;;;;;16.30;9.90;;;;;;;16.62;100.00;101050.16;107193;1252;73222;-72
2023/10/14 07:36:12;;;;;;;17.00;10.40;;;;;;;16.83;100.00;101049.17;107240;1256;73325;-70
2023/10/14 07:38:42;;;;;;;22.50;11.20;;;;;;;16.99;100.00;101045.75;107121;1257;69554;-71
2023/10/14 07:41:14;;;;;;;18.10;10.70;;;;;;;17.16;100.00;101042.67;107137;1245;63553;-74
2023/10/14 07:43:43;;;;;;;19.20;11.00;;;;;;;17.33;100.00;101039.45;107137;1245;62765;-71
2023/10/14 07:46:12;;;;;;;17.30;10.90;;;;;;;17.47;100.00;101038.63;107036;1248;59087;-69
2023/10/14 07:48:41;;;;;;;22.60;11.90;;;;;;;17.60;100.00;101032.47;107058;1246;62497;-69
2023/10/14 07:51:10;;;;;;;18.70;10.60;;;;;;;17.72;100.00;101030.45;106929;1248;61147;-69
2023/10/14 07:53:57;;;;;;;18.70;10.60;;;;;;;17.82;100.00;101024.21;106994;1245;70220;-70
2023/10/14 07:56:26;;;;;;;20.80;11.40;;;;;;;17.96;100.00;101022.23;106982;1255;63183;-70
2023/10/14 07:58:56;;;;;;;14.40;8.00;;;;;;;18.15;100.00;101018.09;107064;1245;60434;-68
2023/10/14 08:01:25;;;;;;;12.40;7.10;;;;;;;18.38;100.00;101011.52;107064;1245;61542;-70
2023/10/14 08:03:56;;;;;;;19.00;7.30;;;;;;;18.64;100.00;101009.80;107051;1245;73941;-71
2023/10/14 08:06:26;;;;;;;14.80;7.30;;;;;;;18.81;100.00;101010.41;106993;1249;61370;-69
2023/10/14 08:08:56;;;;;;;13.30;6.60;;;;;;;19.04;100.00;101008.59;106821;1245;70651;-69
2023/10/14 08:11:25;;;;;;;14.20;7.00;;;;;;;19.20;100.00;101007.42;107026;1256;73196;-70
2023/10/14 08:13:54;;;;;;;15.50;7.20;;;;;;;19.38;100.00;101004.86;106983;1246;58964;-70
2023/10/14 08:16:23;;;;;;;12.20;6.10;;;;;;;19.46;100.00;101001.17;107165;1246;59081;-70
2023/10/14 08:18:56;;;;;;;13.30;5.70;;;;;;;19.55;100.00;101000.42;107053;1252;73376;-71
2023/10/14 08:21:28;;;;;;;12.80;5.10;;;;;;;19.64;100.00;100993.15;109254;1244;70623;-69
2023/10/14 08:23:58;;;;;;;15.60;6.40;;;;;;;19.71;100.00;100990.77;108228;1248;61497;-72
2023/10/14 08:26:27;;;;;;;14.20;5.50;;;;;;;19.80;100.00;100990.00;106858;1248;73880;-70
2023/10/14 08:29:00;;;;;;;15.00;5.80;;;;;;;19.93;100.00;100991.03;106957;1246;59183;-70
2023/10/14 08:31:32;;;;;;;;;;;;;;;20.03;100.00;100991.01;107005;1245;60083;-70
2023/10/14 08:34:02;;;;;;;12.40;5.10;;;;;;;20.13;100.00;100983.70;106936;1256;73964;-71
2023/10/14 08:36:31;;;;;;;14.10;5.90;;;;;;;20.28;100.00;100983.16;107041;1248;72249;-70
2023/10/14 08:39:00;;;;;;;17.30;5.70;;;;;;;20.39;100.00;100981.56;106992;1246;68762;-69
2023/10/14 08:41:34;;;;;;;9.40;5.00;;;;;;;20.48;100.00;100978.55;107032;1256;62498;-71
2023/10/14 08:44:10;;;;;;;14.30;6.20;;;;;;;20.59;100.00;100978.20;107042;1248;60587;-69
2023/10/14 08:46:40;;;;;;;14.20;5.90;;;;;;;20.72;100.00;100972.50;107044;1244;58944;-71
2023/10/14 08:49:12;;;;;;;10.10;4.60;;;;;;;20.81;100.00;100971.32;107146;1256;62250;-70
2023/10/14 08:51:44;;;;;;;9.70;5.30;;;;;;;20.96;100.00;100970.34;107088;1248;71817;-69
2023/10/14 08:54:25;;;;;;;17.00;5.50;;;;;;;21.05;100.00;100963.64;107423;1245;60894;-70
2023/10/14 08:56:54;;;;;;;10.00;5.00;;;;;;;21.19;100.00;100956.94;107430;1244;73419;-71
2023/10/14 08:59:24;;;;;;;17.90;6.30;;;;;;;21.25;100.00;100953.63;107328;1244;62623;-70
2023/10/14 09:01:56;;;;;;;17.40;5.90;;;;;;;21.30;99.79;100950.38;107081;1248;59067;-71
2023/10/14 09:04:30;;;;;;;15.70;5.80;;;;;;;21.41;99.29;100953.68;107097;1257;73809;-70
2023/10/14 09:07:03;;;;;;;14.40;5.00;;;;;;;21.47;98.70;100953.65;106898;1256;72827;-70
2023/10/14 09:09:32;;;;;;;14.40;6.40;;;;;;;21.56;98.28;100949.92;106877;1246;70858;-70
2023/10/14 09:12:12;;;;;;;17.00;5.80;;;;;;;21.67;96.65;100946.46;106880;1248;71391;-70
2023/10/14 09:14:42;;;;;;;15.00;5.40;;;;;;;21.63;95.82;100942.05;106958;1248;58980;-65
2023/10/14 09:17:12;;;;;;;17.10;5.50;;;;;;;21.67;95.76;100939.05;106995;1257;58282;-63
2023/10/14 09:19:48;;;;;;;20.00;5.80;;;;;;;21.74;95.44;100937.54;106983;1247;62168;-64
2023/10/14 09:22:23;;;;;;;12.30;5.40;;;;;;;21.82;95.40;100938.94;106822;1248;61435;-64
2023/10/14 09:24:58;;;;;;;15.20;5.30;;;;;;;21.91;93.38;100927.32;106855;1245;69391;-64
2023/10/14 09:27:31;;;;;;;11.70;5.60;;;;;;;21.95;92.11;100921.41;106895;1246;63530;-64
2023/10/14 09:30:03;;;;;;;10.70;5.40;;;;;;;21.97;92.32;100917.30;106955;1245;59148;-67
2023/10/14 09:32:35;;;;;;;14.90;5.40;;;;;;;22.00;91.10;100913.42;107011;1248;62216;-66
2023/10/14 09:35:04;;;;;;;10.20;4.80;;;;;;;22.00;91.70;100913.59;107027;1244;63703;-66
2023/10/14 09:37:33;;;;;;;14.50;5.10;;;;;;;22.13;91.22;100911.73;107017;1245;62678;-65
2023/10/14 09:40:13;;;;;;;19.10;5.40;;;;;;;22.21;89.75;100905.95;106993;1255;59458;-66
2023/10/14 09:42:44;;;;;;;12.80;5.10;;;;;;;22.31;89.46;100898.45;106961;1252;63250;-66
2023/10/14 09:45:14;;;;;;;12.60;4.70;;;;;;;22.33;88.70;100894.47;106965;1244;61028;-65
2023/10/14 09:47:47;;;;;;;14.30;5.30;;;;;;;22.38;87.64;100887.48;106941;1257;61247;-66
2023/10/14 09:50:17;;;;;;;14.40;5.20;;;;;;;22.51;87.51;100883.81;107084;1247;63188;-67
2023/10/14 09:52:52;;;;;;;12.40;5.20;;;;;;;22.57;86.10;100876.12;107205;1245;60909;-66
2023/10/14 09:55:21;;;;;;;14.00;5.20;;;;;;;22.74;86.54;100871.67;107081;1245;59798;-64
2023/10/14 09:57:51;;;;;;;20.80;5.20;;;;;;;22.81;86.02;100863.19;107196;1246;62770;-66
2023/10/14 10:00:22;;;;;;;13.40;5.40;;;;;;;22.98;84.86;100863.09;107165;1245;58924;-66
2023/10/14 10:02:53;;;;;;;15.20;4.70;;;;;;;23.11;84.12;100861.88;107202;1245;59120;-66
2023/10/14 10:05:38;;;;;;;17.80;5.70;;;;;;;23.19;82.81;100856.79;107194;1244;72708;-66
2023/10/14 10:08:26;;;;;;;17.10;4.40;;;;;;;23.20;81.59;100856.55;107235;1256;62426;-66
2023/10/14 10:10:56;;;;;;;17.20;4.90;;;;;;;23.22;80.24;100847.84;107233;1255;59591;-66
2023/10/14 10:13:28;;;;;;;25.30;16.70;;;;;;;23.20;79.37;100846.02;107111;1247;63119;-68
2023/10/14 10:16:04;;;;;;;16.00;7.90;;;;;;;23.48;79.00;100840.37;107115;1248;60216;-66
2023/10/14 10:18:59;;;;;;;12.80;4.90;;;;;;;23.80;77.72;100837.13;107159;1255;60611;-66
2023/10/14 10:21:30;;;;;;;8.60;3.80;;;;;;;24.12;77.60;100837.62;107124;1244;62583;-67
2023/10/14 10:24:34;;;;;;;12.00;4.20;;;;;;;24.49;74.57;100826.26;107108;1245;72138;-67
2023/10/14 10:27:03;;;;;;;14.50;5.00;;;;;;;24.60;74.70;100825.48;107139;1254;59996;-66
2023/10/14 10:29:44;;;;;;;12.60;4.40;;;;;;;24.87;74.53;100821.57;107169;1245;63061;-66
2023/10/14 10:32:22;;;;;;;12.10;4.40;;;;;;;25.07;71.63;100817.48;107098;1245;59226;-66
2023/10/14 10:35:09;;;;;;;12.30;4.50;;;;;;;25.14;70.61;100813.88;107298;1245;59117;-66
2023/10/14 10:37:54;;;;;;;17.50;4.40;;;;;;;25.59;67.65;100814.44;107178;1248;62992;-67
2023/10/14 10:40:28;;;;;;;11.30;4.90;;;;;;;25.57;67.32;100810.95;107167;1256;72261;-65
2023/10/14 10:43:07;;;;;;;10.80;4.30;;;;;;;25.58;65.27;100808.46;107251;1247;60181;-76
2023/10/14 10:45:42;;;;;;;11.80;3.90;;;;;;;25.32;66.86;100800.27;107228;1247;64441;-66
2023/10/14 10:48:14;;;;;;;11.00;4.40;;;;;;;25.60;65.85;100804.53;107239;1245;59117;-64
2023/10/14 10:50:51;;;;;;;14.50;5.00;;;;;;;25.68;65.28;100793.98;107324;1246;59399;-65
2023/10/14 10:53:21;;;;;;;13.40;5.00;;;;;;;25.80;65.33;100791.70;107179;1248;64381;-67
2023/10/14 10:55:51;;;;;;;15.70;4.80;;;;;;;25.50;65.91;100788.31;107202;1244;61250;-73
2023/10/14 10:58:21;;;;;;;11.30;4.20;;;;;;;26.00;63.78;100784.36;107364;1245;59954;-68
2023/10/14 11:00:50;;;;;;;9.00;4.10;;;;;;;26.04;63.43;100778.11;107301;1254;62670;-71
2023/10/14 11:03:23;;;;;;;11.50;4.70;;;;;;;25.99;62.92;100776.63;107345;1244;60400;-71
2023/10/14 11:05:53;;;;;;;13.80;4.60;;;;;;;26.30;63.31;100773.74;107230;1248;61810;-73
2023/10/14 11:08:22;;;;;;;9.70;3.90;;;;;;;25.99;61.94;100761.39;107141;1255;62513;-71
2023/10/14 11:10:52;;;;;;;11.90;4.00;;;;;;;25.79;61.43;100755.16;107242;1256;72130;-72
2023/10/14 11:13:25;;;;;;;10.00;4.20;;;;;;;25.97;60.87;100753.48;107484;1244;61040;-73
2023/10/14 11:15:54;;;;;;;11.50;4.70;;;;;;;26.35;60.99;100756.62;107323;1247;63197;-71
2023/10/14 11:18:23;;;;;;;6.50;3.70;;;;;;;26.91;59.17;100749.39;107245;1247;60417;-69
2023/10/14 11:21:06;;;;;;;11.80;4.70;;;;;;;26.74;58.19;100748.48;107258;1254;61021;-72
2023/10/14 11:23:39;;;;;;;11.20;4.50;;;;;;;26.56;59.56;100743.38;107212;1253;73056;-68
2023/10/14 11:26:15;;;;;;;16.50;4.90;;;;;;;26.89;58.36;100742.89;107207;1247;61309;-69
2023/10/14 11:28:45;;;;;;;17.60;5.10;;;;;;;27.09;57.98;100731.90;107255;1251;68548;-69
2023/10/14 11:31:15;;;;;;;14.90;5.00;;;;;;;26.82;57.34;100731.63;107170;1254;63727;-70
2023/10/14 11:33:46;;;;;;;15.90;4.60;;;;;;;27.02;57.05;100728.02;107088;1251;62308;-69
2023/10/14 11:36:18;;;;;;;11.80;4.40;;;;;;;26.41;57.57;100717.74;107214;1246;59057;-68
2023/10/14 11:38:48;;;;;;;15.40;5.20;;;;;;;26.58;58.36;100720.31;107268;1257;64059;-69
2023/10/14 11:41:17;;;;;;;11.80;5.40;;;;;;;26.85;57.97;100725.34;107327;1251;61658;-68
2023/10/14 11:43:47;;;;;;;10.50;4.20;;;;;;;27.43;55.86;100720.19;107181;1257;60709;-70
2023/10/14 11:46:17;;;;;;;11.60;4.00;;;;;;;27.58;54.29;100716.14;107189;1247;72598;-70
2023/10/14 11:48:49;;;;;;;12.90;5.60;;;;;;;27.33;54.28;100707.64;107036;1247;59108;-70